Boeuf, Argentina
Current Conditions -  °F | °C
As of 4:00 AM on Thursday 23 Oct 2014 (Local Time) from SAOC Reporting Station
Clear Clear  
Wind Chill: 21°   Ceiling: Unl
Heat Index: 21°   Visibility: 6mi
Dew Point: 11°   Wind: 7mph
Humidity: 53%   Direction: 340°NNW
Pressure: 29.91"   Gusts: NA
Location:  35.94°S, 64.37°W
Report Text: SAOC 230700Z 34006KT CAVOK 21/11 Q1013
Loading
Personal Weather Stations






























Interactive Weather Map
Tropical Storm Tracking
New forecast layout! Learn more

10-Day Weather Forecast

Advertisements
Track Severe Weather on mobile